Terminal Aerodrome Forecast
Issued by NWS

Home | Current Version | Previous Version | Text Only | Print | Product List | Glossary On
Versions: 1 2 3 4 5 6 7 8 9 10 11 12 13 14 15 16 17
000
FTUS41 KRNK 280654 AAA
TAFBCB
TAF AMD
KBCB 280654Z 2807/2906 00000KT P6SM -SHRA SCT050 OVC080
      TEMPO 2807/2810 3SM SHRA BR BKN040
     FM281000 00000KT P6SM SCT025 OVC045
     FM281600 23004KT P6SM VCTS OVC040CB
     FM290100 00000KT P6SM VCSH OVC020=

USA.gov is the U.S. government's official web portal to all federal, state and local government web resources and services.